sensor_id;sensor_type;location;lat;lon;timestamp;P1;durP1;ratioP1;P2;durP2;ratioP2
77828;SDS011;67019;51.034;3.728;2023-12-29T00:02:05;19.48;;;2.92;;
77828;SDS011;67019;51.034;3.728;2023-12-29T00:04:34;10.18;;;2.70;;
77828;SDS011;67019;51.034;3.728;2023-12-29T00:07:06;11.22;;;3.35;;
77828;SDS011;67019;51.034;3.728;2023-12-29T00:09:35;17.23;;;2.87;;
77828;SDS011;67019;51.034;3.728;2023-12-29T00:12:07;30.00;;;4.55;;
77828;SDS011;67019;51.034;3.728;2023-12-29T00:14:38;15.60;;;3.67;;
77828;SDS011;67019;51.034;3.728;2023-12-29T00:17:14;13.53;;;2.30;;
77828;SDS011;67019;51.034;3.728;2023-12-29T00:19:45;14.83;;;3.10;;
77828;SDS011;67019;51.034;3.728;2023-12-29T00:22:12;13.88;;;2.85;;
77828;SDS011;67019;51.034;3.728;2023-12-29T00:24:43;15.78;;;3.17;;
77828;SDS011;67019;51.034;3.728;2023-12-29T00:27:16;15.20;;;2.50;;
77828;SDS011;67019;51.034;3.728;2023-12-29T00:29:47;8.88;;;1.82;;
77828;SDS011;67019;51.034;3.728;2023-12-29T00:32:17;12.40;;;3.65;;
77828;SDS011;67019;51.034;3.728;2023-12-29T00:34:48;11.00;;;2.35;;
77828;SDS011;67019;51.034;3.728;2023-12-29T00:37:16;13.60;;;3.02;;
77828;SDS011;67019;51.034;3.728;2023-12-29T00:39:46;13.85;;;2.25;;
77828;SDS011;67019;51.034;3.728;2023-12-29T00:42:15;15.78;;;2.50;;
77828;SDS011;67019;51.034;3.728;2023-12-29T00:44:45;13.03;;;2.75;;
77828;SDS011;67019;51.034;3.728;2023-12-29T00:47:12;10.03;;;2.45;;
77828;SDS011;67019;51.034;3.728;2023-12-29T00:49:43;14.07;;;3.80;;
77828;SDS011;67019;51.034;3.728;2023-12-29T00:52:11;9.60;;;2.40;;
77828;SDS011;67019;51.034;3.728;2023-12-29T00:54:40;11.78;;;1.60;;
77828;SDS011;67019;51.034;3.728;2023-12-29T00:57:09;11.83;;;2.62;;
77828;SDS011;67019;51.034;3.728;2023-12-29T00:59:41;11.97;;;1.98;;
77828;SDS011;67019;51.034;3.728;2023-12-29T01:02:09;15.45;;;2.60;;
77828;SDS011;67019;51.034;3.728;2023-12-29T01:04:37;12.88;;;1.80;;
77828;SDS011;67019;51.034;3.728;2023-12-29T01:07:06;15.58;;;2.85;;
77828;SDS011;67019;51.034;3.728;2023-12-29T01:09:38;18.35;;;2.27;;
77828;SDS011;67019;51.034;3.728;2023-12-29T01:12:06;13.13;;;3.33;;
77828;SDS011;67019;51.034;3.728;2023-12-29T01:14:34;7.47;;;2.30;;
77828;SDS011;67019;51.034;3.728;2023-12-29T01:17:01;13.83;;;4.30;;
77828;SDS011;67019;51.034;3.728;2023-12-29T01:19:29;8.83;;;1.90;;
77828;SDS011;67019;51.034;3.728;2023-12-29T01:22:02;17.02;;;3.10;;
77828;SDS011;67019;51.034;3.728;2023-12-29T01:24:28;6.65;;;1.50;;
77828;SDS011;67019;51.034;3.728;2023-12-29T01:26:55;14.50;;;1.98;;
77828;SDS011;67019;51.034;3.728;2023-12-29T01:29:23;14.20;;;4.35;;
77828;SDS011;67019;51.034;3.728;2023-12-29T01:31:52;5.60;;;2.35;;
77828;SDS011;67019;51.034;3.728;2023-12-29T01:34:20;6.97;;;1.70;;
77828;SDS011;67019;51.034;3.728;2023-12-29T01:36:48;22.00;;;3.27;;
77828;SDS011;67019;51.034;3.728;2023-12-29T01:39:15;11.33;;;2.77;;
77828;SDS011;67019;51.034;3.728;2023-12-29T01:41:44;13.83;;;2.50;;
77828;SDS011;67019;51.034;3.728;2023-12-29T01:44:21;13.65;;;2.60;;
77828;SDS011;67019;51.034;3.728;2023-12-29T01:46:50;14.45;;;2.08;;
77828;SDS011;67019;51.034;3.728;2023-12-29T01:49:20;19.85;;;2.92;;
77828;SDS011;67019;51.034;3.728;2023-12-29T01:51:52;17.10;;;3.52;;
77828;SDS011;67019;51.034;3.728;2023-12-29T01:54:22;20.77;;;2.80;;
77828;SDS011;67019;51.034;3.728;2023-12-29T01:56:52;18.42;;;3.15;;
77828;SDS011;67019;51.034;3.728;2023-12-29T02:01:51;13.43;;;2.58;;
77828;SDS011;67019;51.034;3.728;2023-12-29T02:04:21;10.05;;;3.60;;
77828;SDS011;67019;51.034;3.728;2023-12-29T02:06:51;12.47;;;2.30;;
77828;SDS011;67019;51.034;3.728;2023-12-29T02:09:24;15.40;;;3.15;;
77828;SDS011;67019;51.034;3.728;2023-12-29T02:11:48;15.38;;;3.12;;
77828;SDS011;67019;51.034;3.728;2023-12-29T02:14:16;11.70;;;2.72;;
77828;SDS011;67019;51.034;3.728;2023-12-29T02:17:00;14.95;;;1.65;;
77828;SDS011;67019;51.034;3.728;2023-12-29T02:19:28;20.77;;;5.03;;
77828;SDS011;67019;51.034;3.728;2023-12-29T02:22:13;11.22;;;2.87;;
77828;SDS011;67019;51.034;3.728;2023-12-29T02:24:45;9.13;;;1.90;;
77828;SDS011;67019;51.034;3.728;2023-12-29T02:27:27;16.15;;;2.72;;
77828;SDS011;67019;51.034;3.728;2023-12-29T02:33:07;7.80;;;1.47;;
77828;SDS011;67019;51.034;3.728;2023-12-29T02:35:41;12.47;;;2.47;;
77828;SDS011;67019;51.034;3.728;2023-12-29T02:38:10;9.98;;;3.40;;
77828;SDS011;67019;51.034;3.728;2023-12-29T02:40:39;15.18;;;3.12;;
77828;SDS011;67019;51.034;3.728;2023-12-29T02:43:08;21.55;;;2.92;;
77828;SDS011;67019;51.034;3.728;2023-12-29T02:45:36;12.50;;;2.77;;
77828;SDS011;67019;51.034;3.728;2023-12-29T02:48:04;14.13;;;2.75;;
77828;SDS011;67019;51.034;3.728;2023-12-29T02:50:31;14.78;;;3.15;;
77828;SDS011;67019;51.034;3.728;2023-12-29T02:52:59;17.27;;;3.17;;
77828;SDS011;67019;51.034;3.728;2023-12-29T02:55:30;12.10;;;2.67;;
77828;SDS011;67019;51.034;3.728;2023-12-29T02:57:57;19.85;;;2.52;;
77828;SDS011;67019;51.034;3.728;2023-12-29T03:00:25;17.07;;;2.72;;
77828;SDS011;67019;51.034;3.728;2023-12-29T03:02:53;24.12;;;3.10;;
77828;SDS011;67019;51.034;3.728;2023-12-29T03:05:21;15.53;;;2.67;;
77828;SDS011;67019;51.034;3.728;2023-12-29T03:07:48;12.05;;;2.25;;
77828;SDS011;67019;51.034;3.728;2023-12-29T03:10:16;5.45;;;2.55;;
77828;SDS011;67019;51.034;3.728;2023-12-29T03:12:47;11.45;;;2.20;;
77828;SDS011;67019;51.034;3.728;2023-12-29T03:15:16;11.40;;;2.55;;
77828;SDS011;67019;51.034;3.728;2023-12-29T03:17:44;15.18;;;3.33;;
77828;SDS011;67019;51.034;3.728;2023-12-29T03:22:41;19.75;;;3.17;;
77828;SDS011;67019;51.034;3.728;2023-12-29T03:25:10;12.45;;;2.10;;
77828;SDS011;67019;51.034;3.728;2023-12-29T03:27:38;15.30;;;2.65;;
77828;SDS011;67019;51.034;3.728;2023-12-29T03:30:05;21.80;;;3.22;;
77828;SDS011;67019;51.034;3.728;2023-12-29T03:32:34;10.55;;;2.17;;
77828;SDS011;67019;51.034;3.728;2023-12-29T03:35:03;15.85;;;2.42;;
77828;SDS011;67019;51.034;3.728;2023-12-29T03:37:31;21.12;;;3.08;;
77828;SDS011;67019;51.034;3.728;2023-12-29T03:39:59;9.95;;;2.10;;
77828;SDS011;67019;51.034;3.728;2023-12-29T03:42:27;10.93;;;2.08;;
77828;SDS011;67019;51.034;3.728;2023-12-29T03:44:54;13.75;;;3.08;;
77828;SDS011;67019;51.034;3.728;2023-12-29T03:47:24;13.43;;;2.87;;
77828;SDS011;67019;51.034;3.728;2023-12-29T03:49:52;16.20;;;2.70;;
77828;SDS011;67019;51.034;3.728;2023-12-29T03:54:48;9.78;;;2.02;;
77828;SDS011;67019;51.034;3.728;2023-12-29T03:57:18;17.25;;;3.45;;
77828;SDS011;67019;51.034;3.728;2023-12-29T03:59:47;17.10;;;2.75;;
77828;SDS011;67019;51.034;3.728;2023-12-29T04:02:14;26.17;;;3.25;;
77828;SDS011;67019;51.034;3.728;2023-12-29T04:04:43;12.37;;;2.72;;
77828;SDS011;67019;51.034;3.728;2023-12-29T04:07:11;11.57;;;2.47;;
77828;SDS011;67019;51.034;3.728;2023-12-29T04:09:39;14.18;;;3.22;;
77828;SDS011;67019;51.034;3.728;2023-12-29T04:12:07;17.45;;;2.55;;
77828;SDS011;67019;51.034;3.728;2023-12-29T04:14:34;14.65;;;4.10;;
77828;SDS011;67019;51.034;3.728;2023-12-29T04:17:02;8.53;;;2.27;;
77828;SDS011;67019;51.034;3.728;2023-12-29T04:19:31;15.98;;;2.05;;
77828;SDS011;67019;51.034;3.728;2023-12-29T04:22:00;13.08;;;2.77;;
77828;SDS011;67019;51.034;3.728;2023-12-29T04:24:28;13.38;;;3.08;;
77828;SDS011;67019;51.034;3.728;2023-12-29T04:26:57;13.53;;;2.05;;
77828;SDS011;67019;51.034;3.728;2023-12-29T04:29:29;12.95;;;3.27;;
77828;SDS011;67019;51.034;3.728;2023-12-29T04:31:57;13.40;;;2.05;;
77828;SDS011;67019;51.034;3.728;2023-12-29T04:34:26;15.40;;;2.00;;
77828;SDS011;67019;51.034;3.728;2023-12-29T04:36:54;12.58;;;2.50;;
77828;SDS011;67019;51.034;3.728;2023-12-29T04:39:26;11.70;;;2.15;;
77828;SDS011;67019;51.034;3.728;2023-12-29T04:41:56;13.70;;;3.15;;
77828;SDS011;67019;51.034;3.728;2023-12-29T04:44:20;8.65;;;2.45;;
77828;SDS011;67019;51.034;3.728;2023-12-29T04:46:48;9.28;;;2.10;;
77828;SDS011;67019;51.034;3.728;2023-12-29T04:49:15;11.38;;;2.00;;
77828;SDS011;67019;51.034;3.728;2023-12-29T04:51:43;9.65;;;2.20;;
77828;SDS011;67019;51.034;3.728;2023-12-29T04:54:17;8.90;;;2.60;;
77828;SDS011;67019;51.034;3.728;2023-12-29T04:56:42;9.55;;;1.95;;
77828;SDS011;67019;51.034;3.728;2023-12-29T04:59:12;18.92;;;2.35;;
77828;SDS011;67019;51.034;3.728;2023-12-29T05:01:44;17.40;;;3.08;;
77828;SDS011;67019;51.034;3.728;2023-12-29T05:04:10;14.35;;;2.80;;
77828;SDS011;67019;51.034;3.728;2023-12-29T05:06:40;12.65;;;2.08;;
77828;SDS011;67019;51.034;3.728;2023-12-29T05:09:08;13.00;;;2.87;;
77828;SDS011;67019;51.034;3.728;2023-12-29T05:11:37;13.48;;;2.10;;
77828;SDS011;67019;51.034;3.728;2023-12-29T05:14:05;11.15;;;2.50;;
77828;SDS011;67019;51.034;3.728;2023-12-29T05:16:33;13.00;;;3.08;;
77828;SDS011;67019;51.034;3.728;2023-12-29T05:19:00;7.50;;;2.02;;
77828;SDS011;67019;51.034;3.728;2023-12-29T05:21:30;17.15;;;1.95;;
77828;SDS011;67019;51.034;3.728;2023-12-29T05:23:57;16.12;;;2.70;;
77828;SDS011;67019;51.034;3.728;2023-12-29T05:26:27;12.07;;;2.15;;
77828;SDS011;67019;51.034;3.728;2023-12-29T05:28:54;13.78;;;2.35;;
77828;SDS011;67019;51.034;3.728;2023-12-29T05:31:22;14.70;;;2.25;;
77828;SDS011;67019;51.034;3.728;2023-12-29T05:33:50;16.73;;;2.35;;
77828;SDS011;67019;51.034;3.728;2023-12-29T05:36:17;12.85;;;2.22;;
77828;SDS011;67019;51.034;3.728;2023-12-29T05:38:45;14.47;;;2.52;;
77828;SDS011;67019;51.034;3.728;2023-12-29T05:41:13;8.18;;;1.87;;
77828;SDS011;67019;51.034;3.728;2023-12-29T05:43:41;15.80;;;2.95;;
77828;SDS011;67019;51.034;3.728;2023-12-29T05:46:11;10.48;;;2.45;;
77828;SDS011;67019;51.034;3.728;2023-12-29T05:48:39;10.25;;;2.00;;
77828;SDS011;67019;51.034;3.728;2023-12-29T05:51:07;9.55;;;1.67;;
77828;SDS011;67019;51.034;3.728;2023-12-29T05:53:38;10.00;;;2.15;;
77828;SDS011;67019;51.034;3.728;2023-12-29T05:56:06;9.63;;;3.05;;
77828;SDS011;67019;51.034;3.728;2023-12-29T05:58:34;12.63;;;3.10;;
77828;SDS011;67019;51.034;3.728;2023-12-29T06:01:02;17.20;;;3.52;;
77828;SDS011;67019;51.034;3.728;2023-12-29T06:03:32;14.55;;;2.40;;
77828;SDS011;67019;51.034;3.728;2023-12-29T06:06:01;12.43;;;2.87;;
77828;SDS011;67019;51.034;3.728;2023-12-29T06:08:31;12.15;;;2.20;;
77828;SDS011;67019;51.034;3.728;2023-12-29T06:11:00;12.78;;;3.47;;
77828;SDS011;67019;51.034;3.728;2023-12-29T06:13:28;7.95;;;1.98;;
77828;SDS011;67019;51.034;3.728;2023-12-29T06:15:57;13.88;;;2.45;;
77828;SDS011;67019;51.034;3.728;2023-12-29T06:18:25;9.73;;;2.58;;
77828;SDS011;67019;51.034;3.728;2023-12-29T06:20:57;9.65;;;2.47;;
77828;SDS011;67019;51.034;3.728;2023-12-29T06:23:23;10.23;;;2.40;;
77828;SDS011;67019;51.034;3.728;2023-12-29T06:25:54;15.65;;;3.75;;
77828;SDS011;67019;51.034;3.728;2023-12-29T06:28:22;12.10;;;2.35;;
77828;SDS011;67019;51.034;3.728;2023-12-29T06:30:49;9.40;;;2.33;;
77828;SDS011;67019;51.034;3.728;2023-12-29T06:33:19;9.50;;;2.80;;
77828;SDS011;67019;51.034;3.728;2023-12-29T06:35:47;14.07;;;3.40;;
77828;SDS011;67019;51.034;3.728;2023-12-29T06:38:15;10.28;;;2.42;;
77828;SDS011;67019;51.034;3.728;2023-12-29T06:40:48;8.85;;;2.33;;
77828;SDS011;67019;51.034;3.728;2023-12-29T06:43:14;9.05;;;2.35;;
77828;SDS011;67019;51.034;3.728;2023-12-29T06:45:42;18.07;;;4.05;;
77828;SDS011;67019;51.034;3.728;2023-12-29T06:48:16;8.38;;;2.05;;
77828;SDS011;67019;51.034;3.728;2023-12-29T06:50:40;6.35;;;2.98;;
77828;SDS011;67019;51.034;3.728;2023-12-29T06:53:09;11.12;;;2.47;;
77828;SDS011;67019;51.034;3.728;2023-12-29T06:55:37;10.65;;;2.77;;
77828;SDS011;67019;51.034;3.728;2023-12-29T06:58:05;5.33;;;1.52;;
77828;SDS011;67019;51.034;3.728;2023-12-29T07:00:33;9.55;;;2.37;;
77828;SDS011;67019;51.034;3.728;2023-12-29T07:03:02;13.83;;;2.25;;
77828;SDS011;67019;51.034;3.728;2023-12-29T07:05:31;6.58;;;1.57;;
77828;SDS011;67019;51.034;3.728;2023-12-29T07:08:00;5.60;;;1.15;;
77828;SDS011;67019;51.034;3.728;2023-12-29T07:10:30;5.03;;;2.00;;
77828;SDS011;67019;51.034;3.728;2023-12-29T07:12:57;9.90;;;1.60;;
77828;SDS011;67019;51.034;3.728;2023-12-29T07:15:25;3.52;;;0.93;;
77828;SDS011;67019;51.034;3.728;2023-12-29T07:17:52;15.55;;;1.72;;
77828;SDS011;67019;51.034;3.728;2023-12-29T07:20:20;3.47;;;0.90;;
77828;SDS011;67019;51.034;3.728;2023-12-29T07:22:48;9.18;;;0.95;;
77828;SDS011;67019;51.034;3.728;2023-12-29T07:25:15;3.75;;;1.00;;
77828;SDS011;67019;51.034;3.728;2023-12-29T07:27:43;4.05;;;1.62;;
77828;SDS011;67019;51.034;3.728;2023-12-29T07:30:11;4.28;;;1.22;;
77828;SDS011;67019;51.034;3.728;2023-12-29T07:32:39;4.97;;;0.88;;
77828;SDS011;67019;51.034;3.728;2023-12-29T07:35:07;3.67;;;0.80;;
77828;SDS011;67019;51.034;3.728;2023-12-29T07:37:36;1.62;;;0.60;;
77828;SDS011;67019;51.034;3.728;2023-12-29T07:40:06;0.90;;;0.50;;
77828;SDS011;67019;51.034;3.728;2023-12-29T07:42:34;1.40;;;0.63;;
77828;SDS011;67019;51.034;3.728;2023-12-29T07:45:03;0.60;;;0.55;;
77828;SDS011;67019;51.034;3.728;2023-12-29T07:47:32;0.80;;;0.33;;
77828;SDS011;67019;51.034;3.728;2023-12-29T07:50:01;0.50;;;0.40;;
77828;SDS011;67019;51.034;3.728;2023-12-29T07:59:03;3.80;;;0.70;;
77828;SDS011;67019;51.034;3.728;2023-12-29T08:01:34;3.35;;;0.80;;
77828;SDS011;67019;51.034;3.728;2023-12-29T08:04:04;3.15;;;0.70;;
77828;SDS011;67019;51.034;3.728;2023-12-29T08:06:32;3.75;;;0.68;;
77828;SDS011;67019;51.034;3.728;2023-12-29T08:09:03;0.55;;;0.53;;
77828;SDS011;67019;51.034;3.728;2023-12-29T08:11:32;8.25;;;0.80;;
77828;SDS011;67019;51.034;3.728;2023-12-29T08:14:02;2.25;;;1.50;;
77828;SDS011;67019;51.034;3.728;2023-12-29T08:22:47;1.92;;;1.07;;
77828;SDS011;67019;51.034;3.728;2023-12-29T08:25:16;2.37;;;0.93;;
77828;SDS011;67019;51.034;3.728;2023-12-29T08:34:09;2.20;;;0.82;;
77828;SDS011;67019;51.034;3.728;2023-12-29T08:36:42;2.22;;;1.57;;
77828;SDS011;67019;51.034;3.728;2023-12-29T08:39:11;6.08;;;1.82;;
77828;SDS011;67019;51.034;3.728;2023-12-29T08:41:44;4.53;;;1.60;;
77828;SDS011;67019;51.034;3.728;2023-12-29T08:47:36;5.78;;;2.08;;
77828;SDS011;67019;51.034;3.728;2023-12-29T08:53:30;3.17;;;1.32;;
77828;SDS011;67019;51.034;3.728;2023-12-29T08:59:28;6.45;;;1.57;;
77828;SDS011;67019;51.034;3.728;2023-12-29T09:01:57;6.80;;;1.40;;
77828;SDS011;67019;51.034;3.728;2023-12-29T09:04:25;5.70;;;1.50;;
77828;SDS011;67019;51.034;3.728;2023-12-29T09:06:55;2.17;;;0.85;;
77828;SDS011;67019;51.034;3.728;2023-12-29T09:09:30;3.17;;;1.05;;
77828;SDS011;67019;51.034;3.728;2023-12-29T09:11:56;2.98;;;1.15;;
77828;SDS011;67019;51.034;3.728;2023-12-29T09:14:26;3.12;;;1.17;;
77828;SDS011;67019;51.034;3.728;2023-12-29T09:19:27;4.47;;;0.95;;
77828;SDS011;67019;51.034;3.728;2023-12-29T09:34:50;2.83;;;0.70;;
77828;SDS011;67019;51.034;3.728;2023-12-29T09:40:39;6.33;;;3.15;;
77828;SDS011;67019;51.034;3.728;2023-12-29T09:43:09;3.87;;;0.53;;
77828;SDS011;67019;51.034;3.728;2023-12-29T09:45:43;1.70;;;0.40;;
77828;SDS011;67019;51.034;3.728;2023-12-29T09:48:15;2.72;;;0.70;;
77828;SDS011;67019;51.034;3.728;2023-12-29T09:50:48;2.42;;;0.35;;
77828;SDS011;67019;51.034;3.728;2023-12-29T09:53:18;8.30;;;0.57;;
77828;SDS011;67019;51.034;3.728;2023-12-29T09:55:50;2.33;;;0.42;;
77828;SDS011;67019;51.034;3.728;2023-12-29T09:58:21;0.82;;;0.30;;
77828;SDS011;67019;51.034;3.728;2023-12-29T10:00:52;2.90;;;0.55;;
77828;SDS011;67019;51.034;3.728;2023-12-29T10:03:20;3.20;;;0.75;;
77828;SDS011;67019;51.034;3.728;2023-12-29T10:08:24;2.15;;;1.22;;
77828;SDS011;67019;51.034;3.728;2023-12-29T10:10:56;2.45;;;0.53;;
77828;SDS011;67019;51.034;3.728;2023-12-29T10:13:34;2.12;;;0.72;;
77828;SDS011;67019;51.034;3.728;2023-12-29T10:16:07;2.72;;;0.88;;
77828;SDS011;67019;51.034;3.728;2023-12-29T10:21:31;4.12;;;1.00;;
77828;SDS011;67019;51.034;3.728;2023-12-29T10:24:21;6.65;;;1.27;;
77828;SDS011;67019;51.034;3.728;2023-12-29T10:26:48;7.87;;;1.50;;
77828;SDS011;67019;51.034;3.728;2023-12-29T10:29:18;4.55;;;0.90;;
77828;SDS011;67019;51.034;3.728;2023-12-29T10:31:48;5.72;;;1.70;;
77828;SDS011;67019;51.034;3.728;2023-12-29T10:34:24;8.08;;;2.30;;
77828;SDS011;67019;51.034;3.728;2023-12-29T10:37:01;6.53;;;2.37;;
77828;SDS011;67019;51.034;3.728;2023-12-29T10:39:27;11.48;;;2.05;;
77828;SDS011;67019;51.034;3.728;2023-12-29T10:42:05;10.88;;;2.22;;
77828;SDS011;67019;51.034;3.728;2023-12-29T10:44:33;9.73;;;2.25;;
77828;SDS011;67019;51.034;3.728;2023-12-29T10:47:12;10.15;;;2.02;;
77828;SDS011;67019;51.034;3.728;2023-12-29T10:49:37;7.75;;;1.62;;
77828;SDS011;67019;51.034;3.728;2023-12-29T10:52:12;13.68;;;2.70;;
77828;SDS011;67019;51.034;3.728;2023-12-29T10:54:40;8.75;;;2.10;;
77828;SDS011;67019;51.034;3.728;2023-12-29T10:57:09;9.85;;;2.62;;
77828;SDS011;67019;51.034;3.728;2023-12-29T10:59:40;11.65;;;2.50;;
77828;SDS011;67019;51.034;3.728;2023-12-29T11:02:11;13.85;;;2.33;;
77828;SDS011;67019;51.034;3.728;2023-12-29T11:04:43;6.47;;;2.33;;
77828;SDS011;67019;51.034;3.728;2023-12-29T11:07:17;7.25;;;2.27;;
77828;SDS011;67019;51.034;3.728;2023-12-29T11:09:40;10.40;;;2.75;;
77828;SDS011;67019;51.034;3.728;2023-12-29T11:12:08;11.73;;;2.42;;
77828;SDS011;67019;51.034;3.728;2023-12-29T11:14:39;9.05;;;2.55;;
77828;SDS011;67019;51.034;3.728;2023-12-29T11:17:10;9.43;;;2.52;;
77828;SDS011;67019;51.034;3.728;2023-12-29T11:19:39;13.05;;;4.87;;
77828;SDS011;67019;51.034;3.728;2023-12-29T11:22:07;6.55;;;2.90;;
77828;SDS011;67019;51.034;3.728;2023-12-29T11:24:36;7.90;;;2.47;;
77828;SDS011;67019;51.034;3.728;2023-12-29T11:27:04;8.03;;;2.55;;
77828;SDS011;67019;51.034;3.728;2023-12-29T11:29:33;9.50;;;2.00;;
77828;SDS011;67019;51.034;3.728;2023-12-29T11:32:02;14.05;;;2.72;;
77828;SDS011;67019;51.034;3.728;2023-12-29T11:37:11;11.15;;;2.95;;
77828;SDS011;67019;51.034;3.728;2023-12-29T11:39:40;9.43;;;2.27;;
77828;SDS011;67019;51.034;3.728;2023-12-29T11:44:40;6.72;;;2.52;;
77828;SDS011;67019;51.034;3.728;2023-12-29T11:47:22;11.20;;;2.33;;
77828;SDS011;67019;51.034;3.728;2023-12-29T11:49:58;12.47;;;3.15;;
77828;SDS011;67019;51.034;3.728;2023-12-29T11:52:36;11.03;;;2.40;;
77828;SDS011;67019;51.034;3.728;2023-12-29T11:55:08;10.40;;;2.72;;
77828;SDS011;67019;51.034;3.728;2023-12-29T11:57:40;5.60;;;2.80;;
77828;SDS011;67019;51.034;3.728;2023-12-29T12:00:08;15.75;;;3.02;;
77828;SDS011;67019;51.034;3.728;2023-12-29T12:02:36;6.80;;;1.50;;
77828;SDS011;67019;51.034;3.728;2023-12-29T12:05:04;10.82;;;2.45;;
77828;SDS011;67019;51.034;3.728;2023-12-29T12:12:59;5.53;;;1.92;;
77828;SDS011;67019;51.034;3.728;2023-12-29T12:20:36;11.00;;;1.27;;
77828;SDS011;67019;51.034;3.728;2023-12-29T12:23:07;5.62;;;1.30;;
77828;SDS011;67019;51.034;3.728;2023-12-29T12:25:47;5.72;;;1.45;;
77828;SDS011;67019;51.034;3.728;2023-12-29T12:28:18;8.10;;;1.50;;
77828;SDS011;67019;51.034;3.728;2023-12-29T12:30:46;11.12;;;1.72;;
77828;SDS011;67019;51.034;3.728;2023-12-29T12:33:15;6.00;;;1.02;;
77828;SDS011;67019;51.034;3.728;2023-12-29T12:38:35;5.53;;;1.50;;
77828;SDS011;67019;51.034;3.728;2023-12-29T12:41:10;4.40;;;0.80;;
77828;SDS011;67019;51.034;3.728;2023-12-29T12:43:38;2.85;;;1.10;;
77828;SDS011;67019;51.034;3.728;2023-12-29T12:48:43;3.62;;;1.52;;
77828;SDS011;67019;51.034;3.728;2023-12-29T12:51:15;2.67;;;1.20;;
77828;SDS011;67019;51.034;3.728;2023-12-29T12:53:44;4.05;;;1.25;;
77828;SDS011;67019;51.034;3.728;2023-12-29T12:56:14;4.03;;;1.13;;
77828;SDS011;67019;51.034;3.728;2023-12-29T12:58:44;3.85;;;1.52;;
77828;SDS011;67019;51.034;3.728;2023-12-29T13:01:12;1.55;;;1.00;;
77828;SDS011;67019;51.034;3.728;2023-12-29T13:03:40;4.95;;;1.22;;
77828;SDS011;67019;51.034;3.728;2023-12-29T13:06:11;4.25;;;1.65;;
77828;SDS011;67019;51.034;3.728;2023-12-29T13:08:38;2.83;;;0.85;;
77828;SDS011;67019;51.034;3.728;2023-12-29T13:11:13;3.55;;;1.55;;
77828;SDS011;67019;51.034;3.728;2023-12-29T13:13:43;2.92;;;1.00;;
77828;SDS011;67019;51.034;3.728;2023-12-29T13:16:15;3.52;;;1.40;;
77828;SDS011;67019;51.034;3.728;2023-12-29T13:18:40;7.17;;;1.37;;
77828;SDS011;67019;51.034;3.728;2023-12-29T13:21:07;5.25;;;1.12;;
77828;SDS011;67019;51.034;3.728;2023-12-29T13:23:37;4.40;;;1.20;;
77828;SDS011;67019;51.034;3.728;2023-12-29T13:28:59;2.50;;;1.47;;
77828;SDS011;67019;51.034;3.728;2023-12-29T13:41:28;4.87;;;1.12;;
77828;SDS011;67019;51.034;3.728;2023-12-29T13:47:09;1.52;;;0.90;;
77828;SDS011;67019;51.034;3.728;2023-12-29T13:49:40;5.92;;;2.37;;
77828;SDS011;67019;51.034;3.728;2023-12-29T13:52:10;3.83;;;1.57;;
77828;SDS011;67019;51.034;3.728;2023-12-29T13:54:42;7.62;;;1.50;;
77828;SDS011;67019;51.034;3.728;2023-12-29T13:57:09;4.40;;;1.60;;
77828;SDS011;67019;51.034;3.728;2023-12-29T13:59:38;4.20;;;1.32;;
77828;SDS011;67019;51.034;3.728;2023-12-29T14:07:43;2.92;;;1.20;;
77828;SDS011;67019;51.034;3.728;2023-12-29T14:10:19;6.95;;;1.65;;
77828;SDS011;67019;51.034;3.728;2023-12-29T14:15:18;1.67;;;1.25;;
77828;SDS011;67019;51.034;3.728;2023-12-29T14:17:45;8.13;;;1.80;;
77828;SDS011;67019;51.034;3.728;2023-12-29T14:20:13;2.60;;;1.17;;
77828;SDS011;67019;51.034;3.728;2023-12-29T14:22:44;2.20;;;1.32;;
77828;SDS011;67019;51.034;3.728;2023-12-29T14:25:16;5.35;;;1.92;;
77828;SDS011;67019;51.034;3.728;2023-12-29T14:27:51;3.70;;;1.17;;
77828;SDS011;67019;51.034;3.728;2023-12-29T14:32:45;6.75;;;1.82;;
77828;SDS011;67019;51.034;3.728;2023-12-29T14:35:13;1.55;;;1.05;;
77828;SDS011;67019;51.034;3.728;2023-12-29T14:37:43;7.70;;;1.72;;
77828;SDS011;67019;51.034;3.728;2023-12-29T14:40:13;4.08;;;1.47;;
77828;SDS011;67019;51.034;3.728;2023-12-29T14:42:42;2.45;;;1.12;;
77828;SDS011;67019;51.034;3.728;2023-12-29T14:45:10;7.10;;;1.40;;
77828;SDS011;67019;51.034;3.728;2023-12-29T14:47:37;10.40;;;1.57;;
77828;SDS011;67019;51.034;3.728;2023-12-29T14:50:10;8.75;;;1.67;;
77828;SDS011;67019;51.034;3.728;2023-12-29T14:52:34;5.87;;;2.27;;
77828;SDS011;67019;51.034;3.728;2023-12-29T14:55:04;7.08;;;1.82;;
77828;SDS011;67019;51.034;3.728;2023-12-29T14:57:32;7.70;;;2.55;;
77828;SDS011;67019;51.034;3.728;2023-12-29T14:59:59;18.37;;;2.27;;
77828;SDS011;67019;51.034;3.728;2023-12-29T15:02:34;13.48;;;1.55;;
77828;SDS011;67019;51.034;3.728;2023-12-29T15:04:58;4.62;;;1.52;;
77828;SDS011;67019;51.034;3.728;2023-12-29T15:07:25;6.65;;;1.82;;
77828;SDS011;67019;51.034;3.728;2023-12-29T15:09:55;18.62;;;3.47;;
77828;SDS011;67019;51.034;3.728;2023-12-29T15:12:28;16.82;;;2.17;;
77828;SDS011;67019;51.034;3.728;2023-12-29T15:14:58;10.85;;;3.58;;
77828;SDS011;67019;51.034;3.728;2023-12-29T15:17:26;10.93;;;1.75;;
77828;SDS011;67019;51.034;3.728;2023-12-29T15:19:58;9.23;;;1.72;;
77828;SDS011;67019;51.034;3.728;2023-12-29T15:22:27;18.82;;;3.08;;
77828;SDS011;67019;51.034;3.728;2023-12-29T15:24:55;12.82;;;2.67;;
77828;SDS011;67019;51.034;3.728;2023-12-29T15:27:23;6.70;;;1.80;;
77828;SDS011;67019;51.034;3.728;2023-12-29T15:29:50;22.13;;;3.15;;
77828;SDS011;67019;51.034;3.728;2023-12-29T15:32:20;10.20;;;1.77;;
77828;SDS011;67019;51.034;3.728;2023-12-29T15:34:47;5.22;;;1.82;;
77828;SDS011;67019;51.034;3.728;2023-12-29T15:37:19;12.53;;;1.92;;
77828;SDS011;67019;51.034;3.728;2023-12-29T15:39:49;9.38;;;3.45;;
77828;SDS011;67019;51.034;3.728;2023-12-29T15:42:20;18.52;;;2.90;;
77828;SDS011;67019;51.034;3.728;2023-12-29T15:44:50;19.10;;;2.75;;
77828;SDS011;67019;51.034;3.728;2023-12-29T15:47:17;10.85;;;1.90;;
77828;SDS011;67019;51.034;3.728;2023-12-29T15:49:45;13.40;;;2.45;;
77828;SDS011;67019;51.034;3.728;2023-12-29T15:52:22;14.30;;;2.50;;
77828;SDS011;67019;51.034;3.728;2023-12-29T15:58:08;8.08;;;2.52;;
77828;SDS011;67019;51.034;3.728;2023-12-29T16:00:38;9.40;;;1.95;;
77828;SDS011;67019;51.034;3.728;2023-12-29T16:03:06;11.55;;;2.37;;
77828;SDS011;67019;51.034;3.728;2023-12-29T16:05:34;15.60;;;2.45;;
77828;SDS011;67019;51.034;3.728;2023-12-29T16:08:08;13.08;;;4.05;;
77828;SDS011;67019;51.034;3.728;2023-12-29T16:10:32;11.10;;;2.77;;
77828;SDS011;67019;51.034;3.728;2023-12-29T16:13:01;8.85;;;2.17;;
77828;SDS011;67019;51.034;3.728;2023-12-29T16:15:31;15.40;;;2.35;;
77828;SDS011;67019;51.034;3.728;2023-12-29T16:18:00;17.35;;;2.72;;
77828;SDS011;67019;51.034;3.728;2023-12-29T16:20:28;15.68;;;5.08;;
77828;SDS011;67019;51.034;3.728;2023-12-29T16:22:57;11.63;;;4.05;;
77828;SDS011;67019;51.034;3.728;2023-12-29T16:25:25;17.35;;;2.33;;
77828;SDS011;67019;51.034;3.728;2023-12-29T16:27:53;17.23;;;3.42;;
77828;SDS011;67019;51.034;3.728;2023-12-29T16:30:20;12.05;;;1.85;;
77828;SDS011;67019;51.034;3.728;2023-12-29T16:32:49;11.90;;;2.70;;
77828;SDS011;67019;51.034;3.728;2023-12-29T16:35:17;15.43;;;4.25;;
77828;SDS011;67019;51.034;3.728;2023-12-29T16:37:48;18.05;;;3.47;;
77828;SDS011;67019;51.034;3.728;2023-12-29T16:40:16;22.00;;;5.00;;
77828;SDS011;67019;51.034;3.728;2023-12-29T16:42:51;11.38;;;2.60;;
77828;SDS011;67019;51.034;3.728;2023-12-29T16:45:17;18.25;;;3.17;;
77828;SDS011;67019;51.034;3.728;2023-12-29T16:47:49;21.23;;;4.20;;
77828;SDS011;67019;51.034;3.728;2023-12-29T16:50:16;13.28;;;2.70;;